createdAt,value
2022-12-19T00:00:01.275Z,1015
2022-12-19T00:00:41.702Z,1014.99
2022-12-19T00:01:22.252Z,1015.01
2022-12-19T00:02:02.880Z,1014.97
2022-12-19T00:02:43.586Z,1014.95
2022-12-19T00:03:23.934Z,1014.96
2022-12-19T00:04:05.466Z,1014.94
2022-12-19T00:04:44.900Z,1014.93
2022-12-19T00:05:25.429Z,1014.91
2022-12-19T00:06:05.938Z,1014.93
2022-12-19T00:06:46.491Z,1014.94
2022-12-19T00:07:27.006Z,1014.88
2022-12-19T00:09:39.744Z,1014.89
2022-12-19T00:10:24.054Z,1014.87
2022-12-19T00:11:04.632Z,1014.89
2022-12-19T00:11:45.131Z,1014.82
2022-12-19T00:12:25.665Z,1014.8
2022-12-19T00:13:06.176Z,1014.8
2022-12-19T00:13:46.706Z,1014.82
2022-12-19T00:14:27.281Z,1014.8
2022-12-19T00:15:07.908Z,1014.77
2022-12-19T00:15:48.509Z,1014.8
2022-12-19T00:16:29.071Z,1014.78
2022-12-19T00:18:26.838Z,1014.77
2022-12-19T00:19:07.344Z,1014.74
2022-12-19T00:19:47.850Z,1014.76
2022-12-19T00:20:28.361Z,1014.76
2022-12-19T00:21:08.909Z,1014.76
2022-12-19T00:21:49.430Z,1014.73
2022-12-19T00:22:29.942Z,1014.76
2022-12-19T00:23:10.461Z,1014.73
2022-12-19T00:23:50.964Z,1014.72
2022-12-19T00:24:31.492Z,1014.68
2022-12-19T00:25:12.018Z,1014.66
2022-12-19T00:25:53.220Z,1014.67
2022-12-19T00:26:33.759Z,1014.65
2022-12-19T00:27:14.275Z,1014.66
2022-12-19T00:27:54.794Z,1014.68
2022-12-19T00:28:35.304Z,1014.68
2022-12-19T00:29:16.280Z,1014.7
2022-12-19T00:29:56.308Z,1014.68
2022-12-19T00:30:36.952Z,1014.66
2022-12-19T00:31:17.518Z,1014.69
2022-12-19T00:31:57.895Z,1014.66
2022-12-19T00:32:38.406Z,1014.65
2022-12-19T00:33:18.924Z,1014.65
2022-12-19T00:33:59.511Z,1014.65
2022-12-19T00:34:40.028Z,1014.66
2022-12-19T00:35:20.576Z,1014.67
2022-12-19T00:36:01.096Z,1014.64
2022-12-19T00:36:41.593Z,1014.67
2022-12-19T00:37:22.113Z,1014.66
2022-12-19T00:38:02.613Z,1014.67
2022-12-19T00:38:43.139Z,1014.71
2022-12-19T00:39:23.684Z,1014.72
2022-12-19T00:40:04.220Z,1014.71
2022-12-19T00:40:44.719Z,1014.73
2022-12-19T00:41:25.243Z,1014.73
2022-12-19T00:43:23.163Z,1014.71
2022-12-19T00:44:03.674Z,1014.69
2022-12-19T00:44:44.179Z,1014.72
2022-12-19T00:45:25.334Z,1014.72
2022-12-19T00:46:06.063Z,1014.73
2022-12-19T00:46:52.902Z,1014.74
2022-12-19T00:47:26.892Z,1014.76
2022-12-19T00:48:07.409Z,1014.75
2022-12-19T00:48:47.920Z,1014.79
2022-12-19T00:49:28.443Z,1014.75
2022-12-19T00:50:08.990Z,1014.73
2022-12-19T00:50:49.501Z,1014.72
2022-12-19T00:51:30.006Z,1014.68
2022-12-19T00:52:10.527Z,1014.67
2022-12-19T00:52:51.040Z,1014.66
2022-12-19T00:53:31.558Z,1014.63
2022-12-19T00:54:12.078Z,1014.63
2022-12-19T00:54:52.658Z,1014.67
2022-12-19T00:55:33.106Z,1014.66
2022-12-19T00:56:13.616Z,1014.61
2022-12-19T00:56:54.125Z,1014.59
2022-12-19T00:57:34.643Z,1014.57
2022-12-19T00:58:15.142Z,1014.56
2022-12-19T00:58:55.699Z,1014.54
2022-12-19T00:59:36.143Z,1014.59
2022-12-19T01:00:16.664Z,1014.55
2022-12-19T01:00:57.256Z,1014.55
2022-12-19T01:01:38.056Z,1014.57
2022-12-19T01:02:18.348Z,1014.55
2022-12-19T01:02:58.909Z,1014.56
2022-12-19T01:03:39.293Z,1014.57
2022-12-19T01:04:28.040Z,1014.61
2022-12-19T01:05:00.340Z,1014.66
2022-12-19T01:05:42.010Z,1014.66
2022-12-19T01:06:21.377Z,1014.69
2022-12-19T01:07:03.061Z,1014.67
2022-12-19T01:09:18.381Z,1014.71
2022-12-19T01:09:58.905Z,1014.69
2022-12-19T01:10:40.039Z,1014.7
2022-12-19T01:11:22.052Z,1014.68
2022-12-19T01:13:36.691Z,1014.64
2022-12-19T01:14:22.456Z,1014.68
2022-12-19T01:15:04.159Z,1014.68
2022-12-19T01:15:38.349Z,1014.63
2022-12-19T01:17:37.081Z,1014.62
2022-12-19T01:18:16.519Z,1014.62
2022-12-19T01:18:57.043Z,1014.59
2022-12-19T01:19:42.118Z,1014.64
2022-12-19T01:20:19.131Z,1014.61
2022-12-19T01:20:58.620Z,1014.57
2022-12-19T01:21:39.166Z,1014.58
2022-12-19T01:22:19.706Z,1014.55
2022-12-19T01:23:00.755Z,1014.51
2022-12-19T01:23:40.854Z,1014.52
2022-12-19T01:24:21.370Z,1014.47
2022-12-19T01:25:01.894Z,1014.46
2022-12-19T01:25:43.102Z,1014.44
2022-12-19T01:26:22.987Z,1014.45
2022-12-19T01:27:03.504Z,1014.43
2022-12-19T01:27:44.023Z,1014.41
2022-12-19T01:28:25.191Z,1014.36
2022-12-19T01:29:05.733Z,1014.38
2022-12-19T01:29:52.608Z,1014.35
2022-12-19T01:30:27.610Z,1014.35
2022-12-19T01:31:08.012Z,1014.33
2022-12-19T01:31:48.593Z,1014.34
2022-12-19T01:32:29.100Z,1014.35
2022-12-19T01:33:09.751Z,1014.33
2022-12-19T01:33:50.131Z,1014.35
2022-12-19T01:34:30.652Z,1014.39
2022-12-19T01:35:14.599Z,1014.38
2022-12-19T01:35:51.757Z,1014.45
2022-12-19T01:36:32.291Z,1014.46
2022-12-19T01:37:12.781Z,1014.51
2022-12-19T01:37:54.865Z,1014.47
2022-12-19T01:38:33.843Z,1014.45
2022-12-19T01:39:14.383Z,1014.46
2022-12-19T01:39:54.877Z,1014.5
2022-12-19T01:40:35.403Z,1014.47
2022-12-19T01:41:15.932Z,1014.5
2022-12-19T01:41:56.440Z,1014.43
2022-12-19T01:42:36.959Z,1014.4
2022-12-19T01:43:17.504Z,1014.38
2022-12-19T01:43:58.032Z,1014.35
2022-12-19T01:44:38.534Z,1014.24
2022-12-19T01:45:19.058Z,1014.24
2022-12-19T01:45:59.592Z,1014.18
2022-12-19T01:46:40.189Z,1014.16
2022-12-19T01:47:20.605Z,1014.12
2022-12-19T01:48:01.132Z,1014.13
2022-12-19T01:48:41.783Z,1014.12
2022-12-19T01:49:22.180Z,1014.11
2022-12-19T01:50:02.697Z,1014.18
2022-12-19T01:50:43.951Z,1014.16
2022-12-19T01:51:23.729Z,1014.23
2022-12-19T01:52:04.245Z,1014.24
2022-12-19T01:52:44.764Z,1014.23
2022-12-19T01:53:25.278Z,1014.18
2022-12-19T01:54:05.810Z,1014.24
2022-12-19T01:54:46.333Z,1014.19
2022-12-19T01:55:26.867Z,1014.18
2022-12-19T01:56:08.247Z,1014.19
2022-12-19T01:58:21.269Z,1014.09
2022-12-19T01:59:06.231Z,1014.07
2022-12-19T01:59:42.339Z,1014.05
2022-12-19T02:00:22.865Z,1014.04
2022-12-19T02:01:03.461Z,1014.02
2022-12-19T02:01:48.583Z,1014.05
2022-12-19T02:04:00.550Z,1014.09
2022-12-19T02:04:40.938Z,1014.12
2022-12-19T02:05:21.491Z,1014.12
2022-12-19T02:06:03.037Z,1014.12
2022-12-19T02:08:16.061Z,1014.04
2022-12-19T02:08:56.589Z,1013.96
2022-12-19T02:09:37.110Z,1013.99
2022-12-19T02:10:17.629Z,1013.96
2022-12-19T02:10:58.131Z,1013.98
2022-12-19T02:11:38.663Z,1013.96
2022-12-19T02:12:19.180Z,1013.99
2022-12-19T02:14:32.430Z,1013.99
2022-12-19T02:15:12.929Z,1013.96
2022-12-19T02:15:53.462Z,1013.97
2022-12-19T02:16:34.046Z,1013.97
2022-12-19T02:17:14.509Z,1013.94
2022-12-19T02:17:55.034Z,1014.01
2022-12-19T02:18:35.526Z,1013.92
2022-12-19T02:19:16.189Z,1013.94
2022-12-19T02:19:56.573Z,1013.96
2022-12-19T02:20:37.094Z,1013.98
2022-12-19T02:21:17.612Z,1013.97
2022-12-19T02:21:58.120Z,1013.98
2022-12-19T02:23:56.056Z,1013.92
2022-12-19T02:24:36.575Z,1013.92
2022-12-19T02:25:17.110Z,1013.9
2022-12-19T02:25:57.610Z,1013.93
2022-12-19T02:26:38.129Z,1013.96
2022-12-19T02:28:51.153Z,1013.9
2022-12-19T02:29:31.674Z,1013.91
2022-12-19T02:30:12.189Z,1013.96
2022-12-19T02:30:52.720Z,1014.01
2022-12-19T02:31:33.333Z,1014.08
2022-12-19T02:32:13.741Z,1014.15
2022-12-19T02:32:54.270Z,1014.21
2022-12-19T02:35:08.627Z,1014.18
2022-12-19T02:35:49.051Z,1014.15
2022-12-19T02:36:29.599Z,1014.12
2022-12-19T02:37:10.153Z,1014.09
2022-12-19T02:37:50.660Z,1014.1
2022-12-19T02:38:31.196Z,1014.08
2022-12-19T02:39:11.734Z,1014.11
2022-12-19T02:39:52.281Z,1014.11
2022-12-19T02:40:32.828Z,1014.08
2022-12-19T02:41:13.357Z,1014.16
2022-12-19T02:41:54.722Z,1014.16
2022-12-19T02:42:35.241Z,1014.2
2022-12-19T02:43:15.785Z,1014.18
2022-12-19T02:45:14.078Z,1014.12
2022-12-19T02:45:54.460Z,1014.11
2022-12-19T02:46:34.951Z,1014.13
2022-12-19T02:47:15.468Z,1014.11
2022-12-19T02:47:55.997Z,1014.09
2022-12-19T02:48:36.515Z,1014.12
2022-12-19T02:49:19.194Z,1014.11
2022-12-19T02:49:57.562Z,1014.1
2022-12-19T02:50:38.191Z,1014.13
2022-12-19T02:51:18.611Z,1014.13
2022-12-19T02:51:59.141Z,1014.1
2022-12-19T02:52:39.655Z,1014.13
2022-12-19T02:53:22.477Z,1014.13
2022-12-19T02:54:00.788Z,1014.11
2022-12-19T02:54:45.065Z,1014.13
2022-12-19T02:55:21.817Z,1014.19
2022-12-19T02:56:03.357Z,1014.15
2022-12-19T02:58:00.335Z,1014.21
2022-12-19T02:58:40.876Z,1014.23
2022-12-19T02:59:21.389Z,1014.24
2022-12-19T03:00:02.769Z,1014.27
2022-12-19T03:00:42.487Z,1014.25
2022-12-19T03:01:23.212Z,1014.26
2022-12-19T03:02:03.771Z,1014.23
2022-12-19T03:02:50.508Z,1014.25
2022-12-19T03:03:24.685Z,1014.24
2022-12-19T03:04:05.164Z,1014.24
2022-12-19T03:04:45.683Z,1014.23
2022-12-19T03:05:26.228Z,1014.25
2022-12-19T03:06:06.855Z,1014.23
2022-12-19T03:06:47.254Z,1014.23
2022-12-19T03:07:27.752Z,1014.2
2022-12-19T03:08:08.302Z,1014.22
2022-12-19T03:10:06.231Z,1014.21
2022-12-19T03:10:46.754Z,1014.2
2022-12-19T03:11:27.302Z,1014.21
2022-12-19T03:12:10.653Z,1014.24
2022-12-19T03:12:49.160Z,1014.23
2022-12-19T03:13:29.700Z,1014.27
2022-12-19T03:14:10.218Z,1014.25
2022-12-19T03:16:23.516Z,1014.22
2022-12-19T03:17:04.027Z,1014.22
2022-12-19T03:17:44.508Z,1014.2
2022-12-19T03:18:25.024Z,1014.23
2022-12-19T03:19:05.547Z,1014.25
2022-12-19T03:19:46.079Z,1014.21
2022-12-19T03:20:26.597Z,1014.24
2022-12-19T03:21:07.868Z,1014.21
2022-12-19T03:21:48.498Z,1014.22
2022-12-19T03:22:28.902Z,1014.19
2022-12-19T03:23:09.416Z,1014.2
2022-12-19T03:23:49.935Z,1014.22
2022-12-19T03:24:30.420Z,1014.2
2022-12-19T03:25:10.940Z,1014.2
2022-12-19T03:25:51.468Z,1014.18
2022-12-19T03:26:32.000Z,1014.18
2022-12-19T03:27:12.499Z,1014.2
2022-12-19T03:27:53.033Z,1014.19
2022-12-19T03:28:33.585Z,1014.19
2022-12-19T03:29:14.210Z,1014.22
2022-12-19T03:29:54.583Z,1014.2
2022-12-19T03:30:35.962Z,1014.16
2022-12-19T03:32:50.143Z,1014.15
2022-12-19T03:33:30.658Z,1014.14
2022-12-19T03:34:11.217Z,1014.11
2022-12-19T03:34:51.738Z,1014.12
2022-12-19T03:35:32.286Z,1014.14
2022-12-19T03:36:12.836Z,1014.13
2022-12-19T03:36:53.468Z,1014.11
2022-12-19T03:37:33.871Z,1014.09
2022-12-19T03:38:14.391Z,1014.13
2022-12-19T03:38:54.901Z,1014.11
2022-12-19T03:39:35.446Z,1014.12
2022-12-19T03:40:15.971Z,1014.13
2022-12-19T03:40:57.170Z,1014.17
2022-12-19T03:41:37.708Z,1014.14
2022-12-19T03:42:18.242Z,1014.16
2022-12-19T03:42:58.767Z,1014.17
2022-12-19T03:43:39.322Z,1014.12
2022-12-19T03:44:19.867Z,1014.17
2022-12-19T03:45:00.433Z,1014.14
2022-12-19T03:45:40.947Z,1014.12
2022-12-19T03:46:21.499Z,1014.08
2022-12-19T03:47:01.973Z,1014.09
2022-12-19T03:47:43.128Z,1014.05
2022-12-19T03:48:23.672Z,1014.07
2022-12-19T03:49:04.176Z,1014.09
2022-12-19T03:49:44.707Z,1014.05
2022-12-19T03:50:25.226Z,1014.08
2022-12-19T03:51:05.749Z,1014.05
2022-12-19T03:51:46.292Z,1014.07
2022-12-19T03:52:27.015Z,1014.03
2022-12-19T03:53:07.453Z,1014.05
2022-12-19T03:53:47.991Z,1014.04
2022-12-19T03:54:28.499Z,1014.01
2022-12-19T03:55:09.036Z,1014
2022-12-19T03:55:49.590Z,1014.02
2022-12-19T03:56:30.116Z,1014.01
2022-12-19T03:57:10.637Z,1014.02
2022-12-19T03:57:51.235Z,1014.06
2022-12-19T03:58:31.755Z,1014
2022-12-19T03:59:12.286Z,1014.04
2022-12-19T03:59:52.832Z,1014.04
2022-12-19T04:00:33.348Z,1014.04
2022-12-19T04:01:13.942Z,1014
2022-12-19T04:01:54.522Z,1014
2022-12-19T04:02:36.059Z,1014
2022-12-19T04:03:16.479Z,1014.07
2022-12-19T04:03:56.995Z,1014.06
2022-12-19T04:04:37.532Z,1014.04
2022-12-19T04:05:18.070Z,1014.05
2022-12-19T04:05:59.101Z,1014.09
2022-12-19T04:06:39.642Z,1014.07
2022-12-19T04:08:37.727Z,1014.11
2022-12-19T04:09:22.378Z,1014.04
2022-12-19T04:09:58.624Z,1014.07
2022-12-19T04:10:39.129Z,1014.1
2022-12-19T04:11:19.662Z,1014.12
2022-12-19T04:12:01.095Z,1014.09
2022-12-19T04:12:41.592Z,1014.09
2022-12-19T04:13:22.115Z,1014.08
2022-12-19T04:15:35.405Z,1014.1
2022-12-19T04:16:15.960Z,1014.1
2022-12-19T04:16:56.447Z,1014.1
2022-12-19T04:17:36.899Z,1014.13
2022-12-19T04:18:17.477Z,1014.12
2022-12-19T04:18:58.000Z,1014.11
2022-12-19T04:19:42.406Z,1014.11
2022-12-19T04:20:19.050Z,1014.17
2022-12-19T04:20:59.572Z,1014.16
2022-12-19T04:21:40.100Z,1014.12
2022-12-19T04:22:20.597Z,1014.15
2022-12-19T04:23:01.131Z,1014.11
2022-12-19T04:23:41.771Z,1014.1
2022-12-19T04:24:22.186Z,1014.16
2022-12-19T04:25:02.704Z,1014.15
2022-12-19T04:25:43.234Z,1014.16
2022-12-19T04:26:23.759Z,1014.11
2022-12-19T04:28:21.915Z,1014.2
2022-12-19T04:29:02.422Z,1014.23
2022-12-19T04:29:42.918Z,1014.25
2022-12-19T04:30:23.461Z,1014.22
2022-12-19T04:31:04.074Z,1014.26
2022-12-19T04:31:44.516Z,1014.25
2022-12-19T04:32:25.036Z,1014.25
2022-12-19T04:33:05.575Z,1014.27
2022-12-19T04:33:46.160Z,1014.26
2022-12-19T04:34:26.674Z,1014.22
2022-12-19T04:35:07.208Z,1014.22
2022-12-19T04:35:47.714Z,1014.17
2022-12-19T04:36:30.189Z,1014.17
2022-12-19T04:37:10.718Z,1014.16
2022-12-19T04:37:51.241Z,1014.16
2022-12-19T04:38:31.760Z,1014.09
2022-12-19T04:39:12.531Z,1014.13
2022-12-19T04:39:52.939Z,1014.1
2022-12-19T04:40:36.588Z,1014.11
2022-12-19T04:41:13.994Z,1014.08
2022-12-19T04:41:54.518Z,1014.08
2022-12-19T04:42:35.069Z,1014.05
2022-12-19T04:43:15.567Z,1014.05
2022-12-19T04:43:56.944Z,1014
2022-12-19T04:44:37.483Z,1014.01
2022-12-19T04:45:18.005Z,1013.99
2022-12-19T04:45:58.563Z,1013.95
2022-12-19T04:46:39.083Z,1013.89
2022-12-19T04:47:19.631Z,1013.91
2022-12-19T04:48:00.152Z,1013.95
2022-12-19T04:48:40.701Z,1013.87
2022-12-19T04:49:22.111Z,1013.86
2022-12-19T04:50:02.621Z,1013.83
2022-12-19T04:50:44.693Z,1013.85
2022-12-19T04:51:26.121Z,1013.82
2022-12-19T04:52:06.613Z,1013.86
2022-12-19T04:52:47.146Z,1013.87
2022-12-19T04:53:27.668Z,1013.94
2022-12-19T04:54:08.209Z,1013.89
2022-12-19T04:54:48.834Z,1013.92
2022-12-19T04:55:30.701Z,1013.96
2022-12-19T04:56:11.261Z,1013.95
2022-12-19T04:56:51.768Z,1013.96
2022-12-19T04:57:32.307Z,1013.93
2022-12-19T04:58:14.505Z,1013.96
2022-12-19T04:58:53.357Z,1013.93
2022-12-19T04:59:33.884Z,1013.87
2022-12-19T05:00:14.399Z,1013.88
2022-12-19T05:00:54.932Z,1013.86
2022-12-19T05:01:35.762Z,1013.87
2022-12-19T05:02:16.353Z,1013.86
2022-12-19T05:02:56.841Z,1013.87
2022-12-19T05:03:37.286Z,1013.96
2022-12-19T05:04:17.733Z,1013.97
2022-12-19T05:04:59.192Z,1013.91
2022-12-19T05:05:39.729Z,1013.86
2022-12-19T05:06:20.243Z,1013.85
2022-12-19T05:07:00.757Z,1013.8
2022-12-19T05:07:41.286Z,1013.79
2022-12-19T05:09:39.159Z,1013.72
2022-12-19T05:10:19.773Z,1013.68
2022-12-19T05:11:00.199Z,1013.66
2022-12-19T05:11:40.727Z,1013.65
2022-12-19T05:12:21.328Z,1013.64
2022-12-19T05:13:01.852Z,1013.61
2022-12-19T05:13:42.374Z,1013.64
2022-12-19T05:14:23.479Z,1013.66
2022-12-19T05:15:04.009Z,1013.64
2022-12-19T05:15:44.585Z,1013.63
2022-12-19T05:16:25.227Z,1013.58
2022-12-19T05:17:07.475Z,1013.59
2022-12-19T05:17:48.077Z,1013.63
2022-12-19T05:18:28.514Z,1013.59
2022-12-19T05:19:09.031Z,1013.55
2022-12-19T05:19:50.218Z,1013.57
2022-12-19T05:20:30.747Z,1013.51
2022-12-19T05:21:11.263Z,1013.51
2022-12-19T05:21:51.779Z,1013.48
2022-12-19T05:22:32.300Z,1013.5
2022-12-19T05:23:16.872Z,1013.48
2022-12-19T05:23:53.364Z,1013.45
2022-12-19T05:24:33.873Z,1013.45
2022-12-19T05:25:14.397Z,1013.46
2022-12-19T05:25:55.071Z,1013.44
2022-12-19T05:26:35.510Z,1013.46
2022-12-19T05:27:16.081Z,1013.45
2022-12-19T05:27:56.601Z,1013.45
2022-12-19T05:28:37.147Z,1013.45
2022-12-19T05:29:17.667Z,1013.45
2022-12-19T05:29:58.190Z,1013.51
2022-12-19T05:30:40.467Z,1013.53
2022-12-19T05:31:21.014Z,1013.56
2022-12-19T05:32:02.141Z,1013.51
2022-12-19T05:32:42.636Z,1013.51
2022-12-19T05:33:23.168Z,1013.55
2022-12-19T05:34:03.744Z,1013.54
2022-12-19T05:34:44.286Z,1013.58
2022-12-19T05:35:25.316Z,1013.58
2022-12-19T05:37:25.127Z,1013.62
2022-12-19T05:38:05.656Z,1013.63
2022-12-19T05:38:46.181Z,1013.62
2022-12-19T05:39:26.706Z,1013.62
2022-12-19T05:41:39.541Z,1013.64
2022-12-19T05:42:19.943Z,1013.61
2022-12-19T05:43:00.463Z,1013.59
2022-12-19T05:43:40.974Z,1013.59
2022-12-19T05:44:21.505Z,1013.59
2022-12-19T05:45:02.010Z,1013.63
2022-12-19T05:45:42.527Z,1013.68
2022-12-19T05:46:23.090Z,1013.66
2022-12-19T05:47:03.563Z,1013.65
2022-12-19T05:47:44.078Z,1013.66
2022-12-19T05:48:24.590Z,1013.69
2022-12-19T05:49:05.095Z,1013.67
2022-12-19T05:49:45.612Z,1013.68
2022-12-19T05:50:26.110Z,1013.69
2022-12-19T05:51:06.659Z,1013.73
2022-12-19T05:51:47.169Z,1013.7
2022-12-19T05:53:45.465Z,1013.63
2022-12-19T05:54:25.970Z,1013.62
2022-12-19T05:55:06.480Z,1013.58
2022-12-19T05:55:47.032Z,1013.57
2022-12-19T05:56:27.543Z,1013.54
2022-12-19T05:57:08.922Z,1013.54
2022-12-19T05:57:49.346Z,1013.54
2022-12-19T05:58:29.846Z,1013.56
2022-12-19T05:59:10.371Z,1013.54
2022-12-19T05:59:50.899Z,1013.55
2022-12-19T06:00:31.433Z,1013.58
2022-12-19T06:02:29.183Z,1013.58
2022-12-19T06:03:09.727Z,1013.56
2022-12-19T06:03:50.189Z,1013.63
2022-12-19T06:04:30.675Z,1013.63
2022-12-19T06:05:11.194Z,1013.62
2022-12-19T06:05:51.706Z,1013.63
2022-12-19T06:06:32.873Z,1013.65
2022-12-19T06:07:16.564Z,1013.65
2022-12-19T06:07:53.938Z,1013.58
2022-12-19T06:08:34.468Z,1013.55
2022-12-19T06:09:15.077Z,1013.51
2022-12-19T06:09:55.494Z,1013.49
2022-12-19T06:10:36.011Z,1013.45
2022-12-19T06:11:16.519Z,1013.44
2022-12-19T06:11:57.026Z,1013.43
2022-12-19T06:13:54.769Z,1013.47
2022-12-19T06:14:35.161Z,1013.47
2022-12-19T06:15:16.348Z,1013.51
2022-12-19T06:15:56.893Z,1013.57
2022-12-19T06:16:37.459Z,1013.46
2022-12-19T06:18:50.449Z,1013.48
2022-12-19T06:19:30.953Z,1013.5
2022-12-19T06:20:11.484Z,1013.51
2022-12-19T06:20:52.001Z,1013.5
2022-12-19T06:21:33.227Z,1013.49
2022-12-19T06:22:13.768Z,1013.52
2022-12-19T06:22:54.285Z,1013.5
2022-12-19T06:25:08.529Z,1013.5
2022-12-19T06:25:49.046Z,1013.55
2022-12-19T06:26:29.547Z,1013.64
2022-12-19T06:27:10.097Z,1013.69
2022-12-19T06:27:51.336Z,1013.71
2022-12-19T06:30:05.001Z,1013.79
2022-12-19T06:30:45.390Z,1013.77
2022-12-19T06:31:25.957Z,1013.73
2022-12-19T06:32:06.409Z,1013.76
2022-12-19T06:32:46.963Z,1013.77
2022-12-19T06:33:27.487Z,1013.74
2022-12-19T06:34:08.028Z,1013.75
2022-12-19T06:35:03.519Z,1013.78
2022-12-19T06:35:29.041Z,1013.77
2022-12-19T06:36:09.565Z,1013.77
2022-12-19T06:36:50.061Z,1013.77
2022-12-19T06:37:30.578Z,1013.76
2022-12-19T06:38:11.103Z,1013.75
2022-12-19T06:38:51.614Z,1013.75
2022-12-19T06:39:32.133Z,1013.73
2022-12-19T06:40:12.679Z,1013.71
2022-12-19T06:40:53.197Z,1013.64
2022-12-19T06:41:33.717Z,1013.66
2022-12-19T06:42:14.271Z,1013.62
2022-12-19T06:42:54.777Z,1013.62
2022-12-19T06:43:35.300Z,1013.64
2022-12-19T06:44:15.816Z,1013.59
2022-12-19T06:44:56.572Z,1013.61
2022-12-19T06:45:37.001Z,1013.65
2022-12-19T06:46:17.440Z,1013.6
2022-12-19T06:48:31.602Z,1013.57
2022-12-19T06:49:12.917Z,1013.59
2022-12-19T06:49:53.463Z,1013.55
2022-12-19T06:50:34.838Z,1013.54
2022-12-19T06:52:48.115Z,1013.52
2022-12-19T06:53:28.669Z,1013.48
2022-12-19T06:54:09.216Z,1013.49
2022-12-19T06:54:49.769Z,1013.44
2022-12-19T06:55:30.317Z,1013.45
2022-12-19T06:56:10.870Z,1013.41
2022-12-19T06:56:51.455Z,1013.43
2022-12-19T06:57:32.190Z,1013.4
2022-12-19T06:59:45.859Z,1013.34
2022-12-19T07:00:26.393Z,1013.34
2022-12-19T07:01:07.132Z,1013.35
2022-12-19T07:01:47.537Z,1013.36
2022-12-19T07:04:00.249Z,1013.37
2022-12-19T07:04:40.787Z,1013.32
2022-12-19T07:05:21.306Z,1013.3
2022-12-19T07:06:01.817Z,1013.28
2022-12-19T07:06:46.005Z,1013.26
2022-12-19T07:07:22.855Z,1013.27
2022-12-19T07:08:03.368Z,1013.3
2022-12-19T07:10:20.444Z,1013.29
2022-12-19T07:11:01.034Z,1013.31
2022-12-19T07:11:41.503Z,1013.31
2022-12-19T07:12:22.028Z,1013.34
2022-12-19T07:13:02.534Z,1013.36
2022-12-19T07:13:43.058Z,1013.41
2022-12-19T07:14:23.604Z,1013.44
2022-12-19T07:15:04.163Z,1013.45
2022-12-19T07:15:44.714Z,1013.46
2022-12-19T07:16:25.500Z,1013.43
2022-12-19T07:17:05.773Z,1013.4
2022-12-19T07:17:46.298Z,1013.42
2022-12-19T07:18:30.687Z,1013.47
2022-12-19T07:19:14.828Z,1013.43
2022-12-19T07:19:57.074Z,1013.5
2022-12-19T07:20:40.665Z,1013.47
2022-12-19T07:21:18.126Z,1013.51
2022-12-19T07:21:58.672Z,1013.51
2022-12-19T07:22:39.234Z,1013.53
2022-12-19T07:24:52.255Z,1013.52
2022-12-19T07:25:32.810Z,1013.53
2022-12-19T07:26:13.349Z,1013.55
2022-12-19T07:26:53.897Z,1013.56
2022-12-19T07:27:36.009Z,1013.56
2022-12-19T07:28:15.003Z,1013.56
2022-12-19T07:30:28.572Z,1013.55
2022-12-19T07:31:09.091Z,1013.62
2022-12-19T07:31:49.795Z,1013.66
2022-12-19T07:32:30.741Z,1013.63
2022-12-19T07:33:12.861Z,1013.69
2022-12-19T07:35:24.267Z,1013.72
2022-12-19T07:36:04.821Z,1013.73
2022-12-19T07:36:45.395Z,1013.74
2022-12-19T07:37:26.568Z,1013.81
2022-12-19T07:38:07.093Z,1013.8
2022-12-19T07:38:47.642Z,1013.8
2022-12-19T07:39:28.188Z,1013.76
2022-12-19T07:40:08.746Z,1013.75
2022-12-19T07:42:21.824Z,1013.79
2022-12-19T07:43:02.363Z,1013.73
2022-12-19T07:43:42.853Z,1013.74
2022-12-19T07:44:23.415Z,1013.73
2022-12-19T07:45:03.910Z,1013.74
2022-12-19T07:45:44.471Z,1013.72
2022-12-19T07:46:24.947Z,1013.73
2022-12-19T07:47:05.593Z,1013.72
2022-12-19T07:47:46.015Z,1013.75
2022-12-19T07:48:26.552Z,1013.75
2022-12-19T07:49:07.053Z,1013.71
2022-12-19T07:49:47.571Z,1013.7
2022-12-19T07:50:28.111Z,1013.66
2022-12-19T07:51:08.650Z,1013.69
2022-12-19T07:51:49.220Z,1013.65
2022-12-19T07:52:29.752Z,1013.63
2022-12-19T07:53:10.267Z,1013.6
2022-12-19T07:53:50.778Z,1013.65
2022-12-19T07:54:31.286Z,1013.64
2022-12-19T07:55:11.800Z,1013.65
2022-12-19T07:55:53.283Z,1013.64
2022-12-19T07:56:33.823Z,1013.64
2022-12-19T07:57:14.341Z,1013.64
2022-12-19T07:57:55.429Z,1013.68
2022-12-19T07:58:35.888Z,1013.67
2022-12-19T07:59:16.413Z,1013.69
2022-12-19T07:59:56.957Z,1013.72
2022-12-19T08:00:37.486Z,1013.73
2022-12-19T08:01:18.989Z,1013.75
2022-12-19T08:01:59.658Z,1013.75
2022-12-19T08:02:40.238Z,1013.76
2022-12-19T08:03:20.585Z,1013.83
2022-12-19T08:05:18.742Z,1013.88
2022-12-19T08:05:58.946Z,1013.84
2022-12-19T08:06:41.485Z,1013.87
2022-12-19T08:07:20.008Z,1013.84
2022-12-19T08:08:00.526Z,1013.83
2022-12-19T08:10:32.727Z,1013.79
2022-12-19T08:11:14.128Z,1013.78
2022-12-19T08:11:56.206Z,1013.78
2022-12-19T08:12:36.736Z,1013.74
2022-12-19T08:14:51.661Z,1013.73
2022-12-19T08:15:30.351Z,1013.78
2022-12-19T08:16:10.873Z,1013.74
2022-12-19T08:17:19.148Z,1013.7
2022-12-19T08:17:31.946Z,1013.69
2022-12-19T08:18:12.669Z,1013.67
2022-12-19T08:18:52.980Z,1013.64
2022-12-19T08:19:33.498Z,1013.63
2022-12-19T08:20:14.023Z,1013.64
2022-12-19T08:20:54.530Z,1013.64
2022-12-19T08:21:35.074Z,1013.66
2022-12-19T08:22:15.608Z,1013.62
2022-12-19T08:22:56.140Z,1013.64
2022-12-19T08:23:36.664Z,1013.67
2022-12-19T08:24:17.211Z,1013.7
2022-12-19T08:24:57.813Z,1013.72
2022-12-19T08:25:38.244Z,1013.75
2022-12-19T08:26:18.804Z,1013.73
2022-12-19T08:26:59.339Z,1013.78
2022-12-19T08:27:39.863Z,1013.81
2022-12-19T08:28:20.372Z,1013.78
2022-12-19T08:29:00.899Z,1013.81
2022-12-19T08:29:41.455Z,1013.77
2022-12-19T08:30:21.980Z,1013.76
2022-12-19T08:31:03.297Z,1013.74
2022-12-19T08:31:43.796Z,1013.73
2022-12-19T08:32:24.332Z,1013.71
2022-12-19T08:33:04.861Z,1013.71
2022-12-19T08:33:45.427Z,1013.67
2022-12-19T08:34:25.948Z,1013.66
2022-12-19T08:35:06.467Z,1013.65
2022-12-19T08:35:47.012Z,1013.58
2022-12-19T08:36:27.536Z,1013.57
2022-12-19T08:37:08.051Z,1013.61
2022-12-19T08:37:48.584Z,1013.6
2022-12-19T08:38:29.113Z,1013.59
2022-12-19T08:39:09.660Z,1013.54
2022-12-19T08:39:50.198Z,1013.55
2022-12-19T08:40:30.715Z,1013.59
2022-12-19T08:41:11.222Z,1013.57
2022-12-19T08:43:23.999Z,1013.57
2022-12-19T08:44:04.547Z,1013.54
2022-12-19T08:44:45.100Z,1013.54
2022-12-19T08:45:25.643Z,1013.57
2022-12-19T08:47:38.717Z,1013.57
2022-12-19T08:48:19.255Z,1013.6
2022-12-19T08:49:00.004Z,1013.56
2022-12-19T08:49:40.360Z,1013.56
2022-12-19T08:50:21.700Z,1013.57
2022-12-19T08:51:02.264Z,1013.58
2022-12-19T08:51:42.805Z,1013.57
2022-12-19T08:52:23.316Z,1013.56
2022-12-19T08:53:03.869Z,1013.59
2022-12-19T08:53:44.415Z,1013.59
2022-12-19T08:54:24.937Z,1013.61
2022-12-19T08:55:05.495Z,1013.59
2022-12-19T08:55:46.033Z,1013.55
2022-12-19T08:56:26.618Z,1013.54
2022-12-19T08:57:07.224Z,1013.52
2022-12-19T08:57:47.833Z,1013.49
2022-12-19T08:58:28.976Z,1013.52
2022-12-19T08:59:09.494Z,1013.48
2022-12-19T08:59:50.578Z,1013.49
2022-12-19T09:00:31.675Z,1013.52
2022-12-19T09:01:12.230Z,1013.49
2022-12-19T09:01:52.875Z,1013.46
2022-12-19T09:02:33.453Z,1013.46
2022-12-19T09:03:14.019Z,1013.45
2022-12-19T09:05:59.011Z,1013.5
2022-12-19T09:06:19.005Z,1013.49
2022-12-19T09:06:52.750Z,1013.47
2022-12-19T09:07:33.262Z,1013.47
2022-12-19T09:08:13.786Z,1013.46
2022-12-19T09:08:54.602Z,1013.48
2022-12-19T09:09:34.848Z,1013.46
2022-12-19T09:10:15.373Z,1013.46
2022-12-19T09:10:55.878Z,1013.45
2022-12-19T09:11:37.585Z,1013.47
2022-12-19T09:12:16.997Z,1013.51
2022-12-19T09:12:58.070Z,1013.5
2022-12-19T09:13:38.904Z,1013.45
2022-12-19T09:14:21.111Z,1013.45
2022-12-19T09:14:59.991Z,1013.47
2022-12-19T09:15:40.515Z,1013.5
2022-12-19T09:16:21.090Z,1013.52
2022-12-19T09:17:01.631Z,1013.49
2022-12-19T09:17:42.075Z,1013.46
2022-12-19T09:18:23.886Z,1013.5
2022-12-19T09:19:03.113Z,1013.48